Pagina principale
METAR-TAF:

METAR-TAF

Aeroporti :

Seyresse

Dax, Francia

latitudine: 43-41N, longitudine: 001-04W, altezza: 32 m

Osservazione

Il bollettino è stato emesso 30 minuti fa, alle 07:00 UTC
Vento 2 kt da sud
Temperature 6°C
Umidità 93%
Pressione 1014 hPa
Visibilità: 4000 m
Nuvoloso ad un'altezza di 4600 ft
foschia

METAR: LFBY 180700Z 19002KT 4000 BR BKN046 06/05 Q1014

Ora: 08:30 (07:30 UTC)


TAF: mancante

Osservazioni e previsioni meteorologiche di più di 4000 aeroporti (messaggi METAR e TAF).

Le stazioni disponibili sono rappresentate dai dischi gialli e rossi sulla carta.

Puntare il mouse per vedere il nome della stazione.

Clicca sopra per visualizzare le osservazioni e previsioni meteorologiche.

Per cambiare la mappa : fare clic sui pulsanti verdi con una croce nera per ingrandire, il pulsante verde con un trattino per diminuire, o sulla freccia verde per le mappe adiacenti.


METAR-TAF: